Time;durP1;ratioP1;P1;durP2;ratioP2;P2;SDS_P1;SDS_P2;PMS_P1;PMS_P2;Temp;Humidity;BMP_temperature;BMP_pressure;BME280_temperature;BME280_humidity;BME280_pressure;Samples;Min_cycle;Max_cycle;Signal;HPM_P1;HPM_P2
2022/08/11 00:01:47;;;;;;;7.68;5.30;;;20.10;99.90;;;;;;5026066;28;20049;-73
2022/08/11 00:04:14;;;;;;;6.57;5.18;;;20.00;99.90;;;;;;5026412;28;20050;-74
2022/08/11 00:06:42;;;;;;;7.13;5.60;;;20.00;99.90;;;;;;5021827;28;20091;-74
2022/08/11 00:09:10;;;;;;;6.60;5.28;;;20.00;99.90;;;;;;5029650;28;20045;-74
2022/08/11 00:11:41;;;;;;;6.28;5.18;;;20.00;99.90;;;;;;5026350;28;20381;-74
2022/08/11 00:14:19;;;;;;;7.15;5.72;;;19.90;99.90;;;;;;5028779;28;20037;-74
2022/08/11 00:17:05;;;;;;;7.72;6.15;;;19.90;99.90;;;;;;5030613;28;20053;-74
2022/08/11 00:19:41;;;;;;;7.55;5.78;;;19.80;99.90;;;;;;5026664;28;20512;-73
2022/08/11 00:22:09;;;;;;;8.63;6.33;;;19.80;99.90;;;;;;5027047;28;20053;-74
2022/08/11 00:24:37;;;;;;;7.40;6.07;;;19.70;99.90;;;;;;5024618;28;20049;-74
2022/08/11 00:27:03;;;;;;;8.75;6.35;;;19.60;99.90;;;;;;5023639;28;20562;-74
2022/08/11 00:29:29;;;;;;;7.30;5.97;;;19.60;99.90;;;;;;5029569;28;20121;-74
2022/08/11 00:31:57;;;;;;;7.50;6.20;;;19.60;99.90;;;;;;5028471;28;20447;-74
2022/08/11 00:34:26;;;;;;;8.35;5.57;;;19.60;99.90;;;;;;5026159;28;20511;-74
2022/08/11 00:36:56;;;;;;;7.47;6.65;;;19.60;99.90;;;;;;5022855;28;20164;-74
2022/08/11 00:39:24;;;;;;;7.25;6.25;;;19.60;99.90;;;;;;5027168;28;20075;-74
2022/08/11 00:42:01;;;;;;;8.93;6.43;;;19.50;99.90;;;;;;5027057;28;20049;-74
2022/08/11 00:44:51;;;;;;;10.95;6.45;;;19.50;99.90;;;;;;5028532;28;20045;-74
2022/08/11 00:47:34;;;;;;;8.45;7.10;;;19.40;99.90;;;;;;5029638;28;20042;-73
2022/08/11 00:50:22;;;;;;;7.25;6.32;;;19.40;99.90;;;;;;5024860;28;20053;-74
2022/08/11 00:53:31;;;;;;;8.93;7.28;;;19.40;99.90;;;;;;5025554;28;20449;-74
2022/08/11 00:56:09;;;;;;;8.32;7.30;;;19.30;99.90;;;;;;5025242;28;20037;-74
2022/08/11 00:58:43;;;;;;;9.50;6.93;;;19.20;99.90;;;;;;5026377;28;20611;-74
2022/08/11 01:01:15;;;;;;;8.30;6.68;;;19.20;99.90;;;;;;5024455;28;20056;-73
2022/08/11 01:04:03;;;;;;;8.27;6.82;;;19.20;99.90;;;;;;5026538;28;20045;-74
2022/08/11 01:06:39;;;;;;;7.93;6.70;;;19.20;99.90;;;;;;5022741;28;20049;-74
2022/08/11 01:09:27;;;;;;;9.05;6.78;;;19.10;99.90;;;;;;5027688;28;20049;-74
2022/08/11 01:12:08;;;;;;;11.90;7.63;;;19.00;99.90;;;;;;5024619;28;20096;-73
2022/08/11 01:14:54;;;;;;;8.57;7.68;;;19.00;99.90;;;;;;5027267;28;20057;-74
2022/08/11 01:17:42;;;;;;;9.05;7.03;;;18.90;99.90;;;;;;5016159;28;20397;-73
2022/08/11 01:20:14;;;;;;;8.35;7.47;;;18.90;99.90;;;;;;5029015;28;20053;-73
2022/08/11 01:23:00;;;;;;;8.43;7.53;;;18.80;99.90;;;;;;5022751;28;20037;-73
2022/08/11 01:25:26;;;;;;;;;;;18.80;99.90;;;;;;5028190;28;20056;-74
2022/08/11 01:27:57;;;;;;;10.47;7.63;;;18.70;99.90;;;;;;5027142;28;20292;-74
2022/08/11 01:30:46;;;;;;;9.05;7.72;;;18.80;99.90;;;;;;5040794;28;20041;-73
2022/08/11 01:33:50;;;;;;;14.75;7.55;;;18.80;99.90;;;;;;5027028;28;20401;-74
2022/08/11 01:36:47;;;;;;;8.57;7.70;;;18.70;99.90;;;;;;5022768;28;21301;-74
2022/08/11 01:39:48;;;;;;;9.10;8.20;;;18.70;99.90;;;;;;5023677;28;20131;-74
2022/08/11 01:45:38;;;;;;;8.43;7.63;;;18.70;99.90;;;;;;5023136;28;20132;-74
2022/08/11 01:48:22;;;;;;;9.43;8.00;;;18.70;99.90;;;;;;5023000;28;20441;-74
2022/08/11 01:51:11;;;;;;;12.00;8.35;;;18.70;99.90;;;;;;5024129;28;20050;-73
2022/08/11 01:54:08;;;;;;;9.10;7.90;;;18.70;99.90;;;;;;5020666;28;20048;-74
2022/08/11 01:56:51;;;;;;;10.23;7.97;;;18.60;99.90;;;;;;5027790;28;20419;-73
2022/08/11 01:59:36;;;;;;;9.20;8.32;;;18.60;99.90;;;;;;5020600;28;20049;-74
2022/08/11 02:02:10;;;;;;;9.60;8.52;;;18.60;99.90;;;;;;5021028;28;20679;-76
2022/08/11 02:05:14;;;;;;;9.98;8.18;;;18.60;99.90;;;;;;5027043;28;20088;-74
2022/08/11 02:08:09;;;;;;;11.23;8.45;;;18.50;99.90;;;;;;5017134;28;20046;-74
2022/08/11 02:13:55;;;;;;;10.77;8.30;;;18.40;99.90;;;;;;5026147;28;20089;-74
2022/08/11 02:16:58;;;;;;;9.38;8.35;;;18.40;99.90;;;;;;5032881;28;20124;-74
2022/08/11 02:26:17;;;;;;;9.93;8.88;;;18.30;99.90;;;;;;5024055;28;20145;-74
2022/08/11 02:29:20;;;;;;;11.30;8.60;;;18.30;99.90;;;;;;5011264;28;20049;-74
2022/08/11 02:35:03;;;;;;;10.43;9.43;;;18.20;99.90;;;;;;5024083;28;20045;-74
2022/08/11 02:37:32;;;;;;;11.73;9.55;;;18.20;99.90;;;;;;5024242;28;20045;-74
2022/08/11 02:39:57;;;;;;;10.43;9.20;;;18.20;99.90;;;;;;5025201;28;20072;-74
2022/08/11 02:42:44;;;;;;;11.75;9.25;;;18.20;99.90;;;;;;5027107;28;20041;-74
2022/08/11 02:45:46;;;;;;;11.25;10.10;;;18.20;99.90;;;;;;5028118;28;20121;-74
2022/08/11 02:51:36;;;;;;;11.10;9.90;;;18.10;99.90;;;;;;5023883;28;20077;-74
2022/08/11 02:54:10;;;;;;;10.70;9.63;;;18.10;99.90;;;;;;5024642;28;20133;-74
2022/08/11 02:56:50;;;;;;;11.50;10.30;;;18.10;99.90;;;;;;5016645;28;20048;-74
2022/08/11 03:02:22;;;;;;;11.93;9.88;;;18.00;99.90;;;;;;5028818;28;20053;-74
2022/08/11 03:04:48;;;;;;;11.60;10.50;;;18.00;99.90;;;;;;5044431;28;20041;-74
2022/08/11 03:07:51;;;;;;;12.10;10.80;;;18.00;99.90;;;;;;5031524;28;20527;-74
2022/08/11 03:17:09;;;;;;;13.63;10.45;;;17.90;99.90;;;;;;5008482;28;20057;-75
2022/08/11 03:20:14;;;;;;;11.23;10.07;;;17.90;99.90;;;;;;5006498;28;20056;-74
2022/08/11 03:22:55;;;;;;;11.45;9.95;;;17.80;99.90;;;;;;5004283;28;20128;-74
2022/08/11 03:25:53;;;;;;;11.63;10.30;;;17.80;99.90;;;;;;5025011;28;20407;-74
2022/08/11 03:28:46;;;;;;;12.48;11.18;;;17.80;99.90;;;;;;5029011;28;20053;-74
2022/08/11 03:31:28;;;;;;;12.13;10.85;;;17.80;99.90;;;;;;5012222;28;20045;-74
2022/08/11 03:34:07;;;;;;;11.48;10.38;;;17.80;99.90;;;;;;5027901;28;20045;-74
2022/08/11 03:37:03;;;;;;;11.80;10.68;;;17.80;99.90;;;;;;5026758;28;20083;-75
2022/08/11 03:39:51;;;;;;;11.17;10.07;;;17.80;99.90;;;;;;5028735;28;20144;-75
2022/08/11 03:42:56;;;;;;;11.93;10.45;;;17.70;99.90;;;;;;5027751;28;20381;-75
2022/08/11 03:45:41;;;;;;;11.00;9.90;;;17.70;99.90;;;;;;5028235;28;20048;-75
2022/08/11 03:48:39;;;;;;;12.25;10.88;;;17.60;99.90;;;;;;5026477;28;20145;-74
2022/08/11 03:51:28;;;;;;;12.00;10.60;;;17.60;99.90;;;;;;5026346;28;21058;-74
2022/08/11 03:54:08;;;;;;;11.57;10.35;;;17.60;99.90;;;;;;5020067;28;20029;-74
2022/08/11 03:57:17;;;;;;;11.55;10.32;;;17.60;99.90;;;;;;5024551;28;20076;-74
2022/08/11 04:00:14;;;;;;;11.27;10.18;;;17.60;99.90;;;;;;5028012;28;20056;-74
2022/08/11 04:03:27;;;;;;;12.00;10.80;;;17.50;99.90;;;;;;5027303;28;20053;-74
2022/08/11 04:06:35;;;;;;;11.80;10.60;;;17.50;99.90;;;;;;4987258;28;20680;-74
2022/08/11 04:09:31;;;;;;;11.52;10.35;;;17.50;99.90;;;;;;4988742;28;20134;-74
2022/08/11 04:12:31;;;;;;;11.70;10.07;;;17.50;99.90;;;;;;5022183;28;20624;-75
2022/08/11 04:18:42;;;;;;;12.38;11.05;;;17.40;99.90;;;;;;5027533;28;20060;-74
2022/08/11 04:21:25;;;;;;;12.30;11.00;;;17.40;99.90;;;;;;5017329;28;20132;-74
2022/08/11 04:24:21;;;;;;;12.43;11.20;;;17.40;99.90;;;;;;5025782;28;20057;-74
2022/08/11 04:27:18;;;;;;;12.75;11.38;;;17.40;99.90;;;;;;5029411;28;20050;-74
2022/08/11 04:30:02;;;;;;;14.10;11.10;;;17.40;99.90;;;;;;5046712;28;20048;-74
2022/08/11 04:33:11;;;;;;;11.98;10.77;;;17.40;99.90;;;;;;5024490;28;20076;-74
2022/08/11 04:35:58;;;;;;;13.10;11.02;;;17.40;99.90;;;;;;5024578;28;20045;-74
2022/08/11 04:38:33;;;;;;;12.18;10.98;;;17.50;99.90;;;;;;5027903;28;20064;-74
2022/08/11 04:43:19;;;;;;;12.18;11.07;;;17.50;99.90;;;;;;5026612;28;20574;-74
2022/08/11 04:44:43;;;;;;;12.95;11.02;;;17.50;99.90;;;;;;5027070;28;20172;-74
2022/08/11 05:02:58;;;;;;;12.65;11.32;;;17.50;99.90;;;;;;5027901;28;20062;-74
2022/08/11 05:05:45;;;;;;;12.00;10.88;;;17.50;99.90;;;;;;5024808;28;20053;-74
2022/08/11 05:08:23;;;;;;;12.30;11.00;;;17.60;99.90;;;;;;5020736;28;20453;-74
2022/08/11 05:11:06;;;;;;;12.93;11.63;;;17.60;99.90;;;;;;5027194;28;20057;-74
2022/08/11 05:37:08;;;;;;;12.23;10.93;;;18.10;99.90;;;;;;5021724;28;20106;-73
2022/08/11 05:56:53;;;;;;;10.50;9.38;;;18.50;99.90;;;;;;5027662;28;20099;-72
2022/08/11 05:59:22;;;;;;;9.68;8.77;;;18.50;99.90;;;;;;5021828;28;20049;-73
2022/08/11 06:01:48;;;;;;;11.55;9.60;;;18.60;99.90;;;;;;5020147;28;20045;-73
2022/08/11 06:04:20;;;;;;;11.07;9.30;;;18.70;99.90;;;;;;5024332;28;20055;-72
2022/08/11 06:06:51;;;;;;;10.13;8.93;;;18.70;99.90;;;;;;5021460;28;20489;-73
2022/08/11 06:09:27;;;;;;;10.02;8.68;;;18.80;99.90;;;;;;5024583;28;20045;-72
2022/08/11 06:11:56;;;;;;;14.13;9.02;;;18.90;99.90;;;;;;5023612;28;20049;-72
2022/08/11 06:14:23;;;;;;;12.82;8.50;;;18.90;99.90;;;;;;5025657;28;20083;-72
2022/08/11 06:16:52;;;;;;;;;;;19.00;99.90;;;;;;5020670;28;20067;-73
2022/08/11 06:19:22;;;;;;;10.15;9.15;;;19.00;99.90;;;;;;5024057;28;19921;-73
2022/08/11 06:21:50;;;;;;;11.30;8.75;;;19.10;99.90;;;;;;5024395;28;20093;-73
2022/08/11 06:24:18;;;;;;;10.68;8.77;;;19.20;99.90;;;;;;5022888;28;20097;-72
2022/08/11 06:26:49;;;;;;;9.93;8.20;;;19.30;99.90;;;;;;5023532;28;20037;-73
2022/08/11 06:29:17;;;;;;;9.10;8.18;;;19.40;99.90;;;;;;5023412;28;20111;-73
2022/08/11 06:31:55;;;;;;;10.20;8.55;;;19.50;99.90;;;;;;5042112;28;20084;-72
2022/08/11 06:35:00;;;;;;;11.05;7.70;;;19.60;99.90;;;;;;5021797;28;20041;-72
2022/08/11 06:38:03;;;;;;;10.60;7.85;;;19.60;99.90;;;;;;4980724;28;20131;-73
2022/08/11 06:43:44;;;;;;;8.48;7.60;;;19.80;99.90;;;;;;5020043;28;20052;-72
2022/08/11 06:46:14;;;;;;;11.07;7.95;;;19.90;99.90;;;;;;5025039;28;20134;-72
2022/08/11 06:48:41;;;;;;;9.63;7.45;;;20.00;99.90;;;;;;5021403;28;20117;-73
2022/08/11 06:51:10;;;;;;;11.13;7.32;;;20.00;99.90;;;;;;5019002;28;20060;-81
2022/08/11 06:53:43;;;;;;;8.45;7.60;;;20.10;99.90;;;;;;5027552;28;20049;-86
2022/08/11 07:01:49;;;;;;;9.13;7.03;;;20.40;99.90;;;;;;5021742;28;20054;-89
2022/08/11 07:04:51;;;;;;;8.00;6.88;;;20.50;99.90;;;;;;5023573;28;20045;-84
2022/08/11 07:17:19;;;;;;;7.85;6.22;;;20.90;99.90;;;;;;5024230;28;20401;-84
2022/08/11 07:31:43;;;;;;;12.88;5.70;;;21.50;99.90;;;;;;5024796;28;20057;-82
2022/08/11 07:34:21;;;;;;;8.02;5.32;;;21.60;99.90;;;;;;5023461;28;20243;-83
2022/08/11 07:36:54;;;;;;;11.05;4.85;;;21.70;99.90;;;;;;5027567;28;20084;-85
2022/08/11 07:39:43;;;;;;;10.45;4.68;;;21.80;99.90;;;;;;5025916;28;20045;-83
2022/08/11 07:42:11;;;;;;;8.40;4.10;;;22.00;99.90;;;;;;5025283;28;20045;-81
2022/08/11 07:52:56;;;;;;;5.72;3.83;;;22.40;99.90;;;;;;5028074;28;20053;-73
2022/08/11 07:55:24;;;;;;;9.68;3.90;;;22.50;99.90;;;;;;5026626;28;20056;-78
2022/08/11 08:20:02;;;;;;;6.85;2.47;;;23.50;99.90;;;;;;5008487;28;20058;-79
2022/08/11 08:22:28;;;;;;;4.55;2.17;;;23.70;99.90;;;;;;5010556;28;20133;-79
2022/08/11 08:24:55;;;;;;;7.53;2.58;;;23.80;99.90;;;;;;5010420;28;20054;-77
2022/08/11 08:27:24;;;;;;;5.72;2.70;;;23.90;99.90;;;;;;5017505;28;20042;-80
2022/08/11 08:32:39;;;;;;;8.00;2.38;;;24.20;99.90;;;;;;5036796;28;20132;-81
2022/08/11 08:35:06;;;;;;;9.70;2.33;;;24.30;99.90;;;;;;5034003;28;20076;-81
2022/08/11 08:37:32;;;;;;;6.13;2.05;;;24.40;99.90;;;;;;5020856;28;20540;-81
2022/08/11 08:39:58;;;;;;;5.82;2.17;;;24.50;99.90;;;;;;5027254;28;20121;-79
2022/08/11 08:42:26;;;;;;;8.45;2.50;;;24.60;99.90;;;;;;5030441;28;20111;-77
2022/08/11 08:45:09;;;;;;;5.47;2.05;;;24.70;99.90;;;;;;5019910;28;20053;-82
2022/08/11 08:47:38;;;;;;;5.82;2.00;;;24.80;93.90;;;;;;5024546;28;20050;-81
2022/08/11 08:50:09;;;;;;;6.57;2.10;;;24.90;96.80;;;;;;5030445;28;20061;-78
2022/08/11 08:52:41;;;;;;;4.13;1.75;;;25.00;97.80;;;;;;5024693;28;20041;-80
2022/08/11 08:55:14;;;;;;;2.83;1.83;;;25.10;93.20;;;;;;5026563;28;20387;-78
2022/08/11 08:57:41;;;;;;;4.95;2.00;;;25.20;91.40;;;;;;5030512;28;20048;-73
2022/08/11 09:00:08;;;;;;;;;;;25.30;86.50;;;;;;5031019;28;20070;-77
2022/08/11 09:02:33;;;;;;;;;;;25.50;91.20;;;;;;5029738;28;19995;-80
2022/08/11 09:05:00;;;;;;;4.67;1.70;;;25.50;92.80;;;;;;5029127;28;20353;-74
2022/08/11 09:07:27;;;;;;;;;;;25.60;89.50;;;;;;5028927;28;20096;-76
2022/08/11 09:09:55;;;;;;;7.13;1.80;;;25.60;92.30;;;;;;5024780;28;19920;-76
2022/08/11 09:12:25;;;;;;;5.65;1.60;;;25.70;85.90;;;;;;5025996;28;20050;-77
2022/08/11 09:15:03;;;;;;;5.47;1.70;;;25.80;74.50;;;;;;5024304;28;20120;-71
2022/08/11 09:17:42;;;;;;;7.15;2.20;;;25.90;74.40;;;;;;5017681;28;20048;-76
2022/08/11 09:20:16;;;;;;;6.28;1.70;;;26.00;70.60;;;;;;5024718;28;20092;-76
2022/08/11 09:28:16;;;;;;;3.90;1.85;;;26.40;63.80;;;;;;5028211;28;20523;-78
2022/08/11 09:30:45;;;;;;;6.45;1.92;;;26.50;60.80;;;;;;5023441;28;20061;-77
2022/08/11 09:33:14;;;;;;;2.97;1.80;;;26.60;60.30;;;;;;5021728;28;20049;-78
2022/08/11 09:35:45;;;;;;;4.35;1.95;;;26.60;58.40;;;;;;5027834;28;20443;-78
2022/08/11 09:41:04;;;;;;;2.58;1.85;;;26.80;60.20;;;;;;5024050;28;20052;-78
2022/08/11 09:46:23;;;;;;;3.45;1.67;;;27.00;56.00;;;;;;5026325;28;20071;-85
2022/08/11 09:48:52;;;;;;;2.17;1.98;;;27.00;54.60;;;;;;5023673;28;20037;-83
2022/08/11 09:51:21;;;;;;;3.75;1.90;;;27.00;54.70;;;;;;5027487;28;20146;-84
2022/08/11 09:53:49;;;;;;;3.33;1.80;;;27.10;54.20;;;;;;5027357;28;20050;-84
2022/08/11 09:59:06;;;;;;;4.38;1.95;;;27.10;51.80;;;;;;5027654;28;20056;-84
2022/08/11 10:01:41;;;;;;;3.35;1.70;;;27.20;52.90;;;;;;5033186;28;20073;-85
2022/08/11 10:04:15;;;;;;;3.83;2.33;;;27.30;53.00;;;;;;5028791;28;20485;-80
2022/08/11 10:07:01;;;;;;;5.30;2.03;;;27.40;51.60;;;;;;5025300;28;20549;-83
2022/08/11 10:09:41;;;;;;;5.13;2.28;;;27.40;51.70;;;;;;5023440;28;20050;-81
2022/08/11 10:12:34;;;;;;;2.70;1.95;;;27.50;53.40;;;;;;5032795;28;20400;-79
2022/08/11 10:20:43;;;;;;;4.10;2.05;;;27.70;52.00;;;;;;5025400;28;20058;-80
2022/08/11 10:28:41;;;;;;;5.80;1.92;;;27.80;50.40;;;;;;5023547;28;20045;-78
2022/08/11 10:33:59;;;;;;;3.53;1.80;;;27.90;49.40;;;;;;5025110;28;20041;-79
2022/08/11 10:36:27;;;;;;;4.70;2.03;;;28.00;48.90;;;;;;5020765;28;20517;-82
2022/08/11 10:38:54;;;;;;;5.70;1.75;;;28.00;49.30;;;;;;5019220;28;20463;-80
2022/08/11 10:44:08;;;;;;;5.55;1.70;;;28.20;50.30;;;;;;5023627;28;20145;-80
2022/08/11 10:49:19;;;;;;;3.42;1.80;;;28.40;49.20;;;;;;5022220;28;20041;-74
2022/08/11 11:00:05;;;;;;;4.55;1.83;;;28.60;48.50;;;;;;5022361;28;20057;-74
2022/08/11 11:02:32;;;;;;;2.42;1.75;;;28.70;47.40;;;;;;5025379;28;20077;-74
2022/08/11 11:05:13;;;;;;;2.47;1.75;;;28.70;47.80;;;;;;5026553;28;20049;-73
2022/08/11 11:07:54;;;;;;;4.75;1.90;;;28.80;47.00;;;;;;5027149;28;20128;-74
2022/08/11 11:10:20;;;;;;;3.90;1.80;;;28.90;46.80;;;;;;5024593;28;20179;-73
2022/08/11 11:18:34;;;;;;;3.58;1.80;;;29.00;47.70;;;;;;5028252;28;20489;-76
2022/08/11 11:21:14;;;;;;;4.00;1.67;;;29.10;47.40;;;;;;5024751;28;20041;-76
2022/08/11 11:23:48;;;;;;;3.08;1.40;;;29.10;45.70;;;;;;5029919;28;20492;-76
2022/08/11 11:26:38;;;;;;;1.85;1.50;;;29.20;46.10;;;;;;5025451;28;20045;-76
2022/08/11 11:29:30;;;;;;;2.60;1.50;;;29.20;44.90;;;;;;5022299;28;20045;-76
2022/08/11 11:32:08;;;;;;;4.22;1.70;;;29.20;44.60;;;;;;5027373;28;20060;-82
2022/08/11 11:35:07;;;;;;;4.18;1.55;;;29.30;46.40;;;;;;5029854;28;20476;-76
2022/08/11 11:37:34;;;;;;;5.60;2.28;;;29.30;44.90;;;;;;5026488;28;20089;-76
2022/08/11 11:40:01;;;;;;;3.80;1.70;;;29.30;44.00;;;;;;5025980;28;20049;-76
2022/08/11 11:42:28;;;;;;;4.13;1.60;;;29.40;44.50;;;;;;5016330;28;20049;-76
2022/08/11 11:44:54;;;;;;;2.28;1.45;;;29.50;44.50;;;;;;5027529;28;20044;-77
2022/08/11 11:47:21;;;;;;;3.73;1.60;;;29.60;45.30;;;;;;5030467;28;20057;-77
2022/08/11 11:49:48;;;;;;;2.30;1.42;;;29.70;43.70;;;;;;5027107;28;20311;-78
2022/08/11 11:52:20;;;;;;;2.83;1.50;;;29.70;43.40;;;;;;5026800;28;20532;-75
2022/08/11 11:54:49;;;;;;;4.05;1.60;;;29.70;44.60;;;;;;5029896;28;20038;-74
2022/08/11 12:02:50;;;;;;;2.75;1.65;;;29.80;43.60;;;;;;5028549;28;20049;-74
2022/08/11 12:05:16;;;;;;;4.18;1.38;;;29.80;43.20;;;;;;5023978;28;20413;-70
2022/08/11 12:10:26;;;;;;;4.10;1.63;;;30.00;42.80;;;;;;5020428;28;20041;-70
2022/08/11 12:15:37;;;;;;;2.25;1.30;;;30.00;41.20;;;;;;5017098;28;20546;-72
2022/08/11 12:18:03;;;;;;;5.05;1.20;;;30.00;41.70;;;;;;5022927;28;20056;-75
2022/08/11 12:20:31;;;;;;;1.95;1.10;;;30.00;41.50;;;;;;5029288;28;20041;-76
2022/08/11 12:28:28;;;;;;;2.63;1.35;;;30.10;40.00;;;;;;5027604;28;20050;-71
2022/08/11 12:30:54;;;;;;;1.73;1.20;;;30.20;39.80;;;;;;5026801;28;20049;-72
2022/08/11 12:33:21;;;;;;;7.78;2.05;;;30.20;39.20;;;;;;5025049;28;20077;-72
2022/08/11 12:35:54;;;;;;;6.95;1.55;;;30.30;40.60;;;;;;5023321;28;20041;-72
2022/08/11 12:38:22;;;;;;;2.63;1.48;;;30.40;40.80;;;;;;5022514;28;20060;-69
2022/08/11 12:46:23;;;;;;;3.10;1.50;;;30.40;39.80;;;;;;5009050;28;20054;-71
2022/08/11 12:52:00;;;;;;;2.40;1.35;;;30.60;40.30;;;;;;5026338;28;20111;-71
2022/08/11 12:54:58;;;;;;;2.65;1.40;;;30.60;39.30;;;;;;5027086;28;20511;-72
2022/08/11 13:05:57;;;;;;;3.08;1.42;;;30.80;41.30;;;;;;5028453;28;20120;-72
2022/08/11 13:08:25;;;;;;;2.03;1.40;;;30.80;41.40;;;;;;5026103;28;20072;-71
2022/08/11 13:13:42;;;;;;;5.60;1.45;;;30.80;39.20;;;;;;5030102;28;20053;-71
2022/08/11 13:16:09;;;;;;;1.85;1.08;;;30.80;40.80;;;;;;5026070;28;20631;-71
2022/08/11 13:18:36;;;;;;;3.63;1.30;;;30.90;41.10;;;;;;5023880;28;20048;-71
2022/08/11 13:21:02;;;;;;;3.40;1.10;;;31.00;40.20;;;;;;5016587;28;20053;-71
2022/08/11 13:23:28;;;;;;;5.87;1.63;;;31.10;40.10;;;;;;5025538;28;20055;-71
2022/08/11 13:25:54;;;;;;;3.92;1.30;;;31.10;40.80;;;;;;5021418;28;20042;-71
2022/08/11 13:28:22;;;;;;;2.58;1.40;;;31.20;40.50;;;;;;5026315;28;20154;-71
2022/08/11 13:33:48;;;;;;;5.07;1.40;;;31.30;39.30;;;;;;5028706;28;20049;-72
2022/08/11 13:36:19;;;;;;;2.33;1.55;;;31.40;39.50;;;;;;5027308;28;20060;-71
2022/08/11 13:38:46;;;;;;;2.17;1.35;;;31.40;38.60;;;;;;5021130;28;20076;-72
2022/08/11 13:43:58;;;;;;;5.32;1.55;;;31.50;38.80;;;;;;5027613;28;20053;-71
2022/08/11 13:46:24;;;;;;;3.35;1.42;;;31.50;38.30;;;;;;5027996;28;20045;-71
2022/08/11 13:48:51;;;;;;;;;;;31.60;39.00;;;;;;5027404;28;20077;-72
2022/08/11 13:51:31;;;;;;;4.80;1.30;;;31.60;39.50;;;;;;5025379;28;19917;-71
2022/08/11 13:54:10;;;;;;;3.88;1.70;;;31.60;39.00;;;;;;5031618;28;20068;-73
2022/08/11 13:56:38;;;;;;;3.88;1.40;;;31.70;38.30;;;;;;5027182;28;20064;-73
2022/08/11 13:59:07;;;;;;;5.18;1.45;;;31.70;37.80;;;;;;5025629;28;20092;-72
2022/08/11 14:01:39;;;;;;;2.13;1.33;;;31.60;38.30;;;;;;5025829;28;20049;-72
2022/08/11 14:04:12;;;;;;;3.03;1.25;;;31.60;37.90;;;;;;5025686;28;20068;-72
2022/08/11 14:06:43;;;;;;;3.33;1.27;;;31.60;37.30;;;;;;5028698;28;20075;-72
2022/08/11 14:09:09;;;;;;;1.98;1.20;;;31.60;37.20;;;;;;5026381;28;20049;-72
2022/08/11 14:14:24;;;;;;;2.97;1.30;;;31.60;37.00;;;;;;5024662;28;20053;-72
2022/08/11 14:16:53;;;;;;;1.65;1.27;;;31.60;37.00;;;;;;5026376;28;20049;-74
2022/08/11 14:19:22;;;;;;;3.17;1.38;;;31.60;36.70;;;;;;5029019;28;20041;-72
2022/08/11 14:22:06;;;;;;;6.15;1.35;;;31.50;36.20;;;;;;5025162;28;20139;-73
2022/08/11 14:24:48;;;;;;;1.85;1.15;;;31.50;35.70;;;;;;5026194;28;20060;-73
2022/08/11 14:27:15;;;;;;;4.93;1.63;;;31.60;36.90;;;;;;5020961;28;20041;-77
2022/08/11 14:29:42;;;;;;;2.22;1.35;;;31.70;36.40;;;;;;5023155;28;20048;-74
2022/08/11 14:32:10;;;;;;;4.38;1.40;;;31.70;37.10;;;;;;5026674;28;20052;-71
2022/08/11 14:34:42;;;;;;;3.25;1.27;;;31.70;37.50;;;;;;5028193;28;20060;-81
2022/08/11 14:37:28;;;;;;;2.60;1.10;;;31.80;36.90;;;;;;5022968;28;20397;-76
2022/08/11 14:39:59;;;;;;;3.80;1.40;;;31.90;36.90;;;;;;5020387;28;20045;-76
2022/08/11 14:48:02;;;;;;;3.47;1.40;;;32.00;35.70;;;;;;5019199;28;20124;-76
2022/08/11 14:50:30;;;;;;;3.55;1.00;;;32.00;35.20;;;;;;5024985;28;20053;-78
2022/08/11 14:53:07;;;;;;;3.22;1.58;;;32.00;35.80;;;;;;5028664;28;20088;-76
2022/08/11 14:58:28;;;;;;;3.70;1.33;;;32.10;36.40;;;;;;5027566;28;20049;-75
2022/08/11 15:00:56;;;;;;;2.95;1.23;;;32.10;35.50;;;;;;5025006;28;20053;-78
2022/08/11 15:03:24;;;;;;;3.15;1.30;;;32.10;35.20;;;;;;5025510;28;20059;-75
2022/08/11 15:05:55;;;;;;;4.68;1.42;;;32.10;35.40;;;;;;5022121;28;20042;-74
2022/08/11 15:08:53;;;;;;;2.45;1.30;;;32.10;35.40;;;;;;5027507;28;20050;-75
2022/08/11 15:13:58;;;;;;;4.85;1.30;;;32.20;35.80;;;;;;5022285;28;20050;-76
2022/08/11 15:19:12;;;;;;;2.97;1.25;;;32.40;35.30;;;;;;5027483;28;20061;-76
2022/08/11 15:24:23;;;;;;;5.30;1.23;;;32.40;34.50;;;;;;5027059;28;20050;-76
2022/08/11 15:37:56;;;;;;;;;;;32.40;35.50;;;;;;5028995;28;20049;-74
2022/08/11 15:46:38;;;;;;;2.72;1.30;;;32.30;35.50;;;;;;5026804;28;20054;-74
2022/08/11 15:49:21;;;;;;;4.40;1.45;;;32.30;36.00;;;;;;5011300;28;20100;-74
2022/08/11 15:51:57;;;;;;;2.60;1.27;;;32.20;36.00;;;;;;5026535;28;20126;-73
2022/08/11 15:54:26;;;;;;;2.35;1.30;;;32.20;35.30;;;;;;5020573;28;20137;-74
2022/08/11 15:56:54;;;;;;;2.63;1.55;;;32.20;34.90;;;;;;5029000;28;20052;-73
2022/08/11 16:04:10;;;;;;;2.92;1.33;;;32.10;34.60;;;;;;5022290;28;20062;-73
2022/08/11 16:04:57;;;;;;;2.85;1.58;;;32.00;34.50;;;;;;5022769;28;20045;-73
2022/08/11 16:07:28;;;;;;;2.45;1.15;;;32.00;34.90;;;;;;5026677;28;20056;-73
2022/08/11 16:10:00;;;;;;;1.70;1.30;;;31.90;35.00;;;;;;5020994;28;20512;-74
2022/08/11 16:12:31;;;;;;;3.10;1.38;;;31.90;35.20;;;;;;5022626;28;20499;-74
2022/08/11 16:17:54;;;;;;;3.40;1.65;;;31.90;35.80;;;;;;5021991;28;20086;-74
2022/08/11 16:20:23;;;;;;;2.38;1.40;;;31.80;36.50;;;;;;5027931;28;20116;-73
2022/08/11 16:22:51;;;;;;;2.65;1.48;;;31.70;36.90;;;;;;5025429;28;20069;-73
2022/08/11 16:25:23;;;;;;;3.50;1.40;;;31.60;37.10;;;;;;5026991;28;20037;-74
2022/08/11 16:27:56;;;;;;;3.88;1.40;;;31.60;37.50;;;;;;5026377;28;20033;-74
2022/08/11 16:30:22;;;;;;;9.55;1.52;;;31.50;37.30;;;;;;5023160;28;20049;-73
2022/08/11 16:32:52;;;;;;;4.03;1.50;;;31.50;37.60;;;;;;5030315;28;20453;-73
2022/08/11 16:40:53;;;;;;;;;;;31.50;37.70;;;;;;5031090;28;20485;-73
2022/08/11 16:48:57;;;;;;;2.70;1.70;;;31.20;38.00;;;;;;5029284;28;20049;-73
2022/08/11 16:51:23;;;;;;;4.25;1.67;;;31.10;38.00;;;;;;5027099;28;20506;-73
2022/08/11 16:53:49;;;;;;;5.13;2.00;;;31.00;38.20;;;;;;5031159;28;20045;-73
2022/08/11 16:56:20;;;;;;;3.15;1.98;;;30.90;38.10;;;;;;5026893;28;20107;-73
2022/08/11 17:01:37;;;;;;;4.53;1.90;;;30.70;38.80;;;;;;5025855;28;20132;-73
2022/08/11 17:13:08;;;;;;;3.92;1.85;;;30.40;40.00;;;;;;5021596;28;20099;-73
2022/08/11 17:18:44;;;;;;;3.20;2.13;;;30.20;40.30;;;;;;5014831;28;20073;-73
2022/08/11 17:21:14;;;;;;;4.75;2.20;;;30.20;40.50;;;;;;5022920;28;20110;-73
2022/08/11 17:23:45;;;;;;;7.38;2.42;;;30.10;40.60;;;;;;5027187;28;20144;-74
2022/08/11 17:26:21;;;;;;;6.40;2.28;;;30.00;40.70;;;;;;5022089;28;20061;-73
2022/08/11 17:28:50;;;;;;;4.22;2.00;;;29.90;40.90;;;;;;5017488;28;20408;-73
2022/08/11 17:36:53;;;;;;;3.72;2.13;;;29.70;41.20;;;;;;5024061;28;20489;-74
2022/08/11 17:39:19;;;;;;;3.88;2.10;;;29.60;41.30;;;;;;5029413;28;20133;-73
2022/08/11 17:50:02;;;;;;;6.32;2.15;;;29.40;42.00;;;;;;5026361;28;19960;-74
2022/08/11 18:00:44;;;;;;;4.53;2.10;;;29.20;42.10;;;;;;5030775;28;20057;-73
2022/08/11 18:03:31;;;;;;;3.73;2.20;;;29.20;42.00;;;;;;5028472;28;20119;-73
2022/08/11 18:05:59;;;;;;;3.33;1.90;;;29.10;42.00;;;;;;5025523;28;20799;-74
